Time;durP1;ratioP1;P1;durP2;ratioP2;P2;SDS_P1;SDS_P2;PMS_P1;PMS_P2;Temp;Humidity;BMP_temperature;BMP_pressure;BME280_temperature;BME280_humidity;BME280_pressure;Samples;Min_cycle;Max_cycle;Signal;HPM_P1;HPM_P2
2022/07/18 00:01:02;;;;;;;3.33;1.50;;;;;;;15.41;100.00;101353.03;5072404;28;20429;-68
2022/07/18 00:03:27;;;;;;;4.40;1.95;;;;;;;15.35;100.00;101341.81;5068121;28;20048;-68
2022/07/18 00:05:53;;;;;;;2.28;1.25;;;;;;;15.32;100.00;101336.69;5052495;28;20087;-68
2022/07/18 00:08:18;;;;;;;5.25;1.48;;;;;;;15.32;100.00;101343.78;5051714;28;20379;-68
2022/07/18 00:10:43;;;;;;;4.05;1.70;;;;;;;15.26;100.00;101344.97;5067578;28;20025;-68
2022/07/18 00:13:10;;;;;;;3.03;1.40;;;;;;;15.22;100.00;101343.41;5065983;28;20078;-68
2022/07/18 00:15:35;;;;;;;3.08;1.35;;;;;;;15.15;100.00;101339.41;5065214;28;20483;-68
2022/07/18 00:18:01;;;;;;;4.35;1.95;;;;;;;15.14;100.00;101347.44;5054253;28;20041;-68
2022/07/18 00:20:26;;;;;;;10.05;2.40;;;;;;;15.01;100.00;101349.84;5070044;28;20032;-68
2022/07/18 00:22:52;;;;;;;3.97;1.70;;;;;;;14.81;100.00;101336.84;5058520;28;20020;-68
2022/07/18 00:25:17;;;;;;;3.90;1.70;;;;;;;14.66;100.00;101322.63;5084465;28;20032;-68
2022/07/18 00:27:42;;;;;;;2.97;1.67;;;;;;;14.82;100.00;101351.78;5058428;28;20029;-68
2022/07/18 00:30:09;;;;;;;4.97;1.77;;;;;;;14.76;100.00;101336.22;5074761;28;20048;-68
2022/07/18 00:32:34;;;;;;;3.35;1.75;;;;;;;14.88;100.00;101351.44;5081166;28;20497;-68
2022/07/18 00:34:59;;;;;;;3.55;1.88;;;;;;;14.86;100.00;101333.94;5075613;28;20036;-68
2022/07/18 00:37:25;;;;;;;3.13;1.40;;;;;;;14.73;100.00;101312.59;5075704;28;20082;-68
2022/07/18 00:39:50;;;;;;;3.33;1.80;;;;;;;14.70;100.00;101307.47;5082734;28;20085;-68
2022/07/18 00:42:16;;;;;;;7.28;1.98;;;;;;;14.89;100.00;101342.59;5083651;28;20462;-68
2022/07/18 00:44:41;;;;;;;3.75;2.03;;;;;;;14.85;100.00;101333.09;5089269;28;20036;-68
2022/07/18 00:47:06;;;;;;;5.13;1.63;;;;;;;14.67;100.00;101312.88;5074913;28;20115;-68
2022/07/18 00:49:32;;;;;;;5.05;2.00;;;;;;;14.59;100.00;101321.25;5084826;28;20407;-68
2022/07/18 00:51:57;;;;;;;3.53;1.80;;;;;;;14.62;100.00;101320.22;5064623;28;20476;-68
2022/07/18 00:54:22;;;;;;;4.78;1.98;;;;;;;14.59;100.00;101310.66;5082577;28;20058;-68
2022/07/18 00:56:49;;;;;;;5.43;2.10;;;;;;;14.67;100.00;101326.09;5055333;28;20064;-68
2022/07/18 00:59:15;;;;;;;3.40;1.55;;;;;;;14.56;100.00;101307.31;5065958;28;20025;-68
2022/07/18 01:01:45;;;;;;;5.18;1.58;;;;;;;14.60;100.00;101327.41;5070825;28;20025;-68
2022/07/18 01:04:16;;;;;;;5.18;1.85;;;;;;;14.48;100.00;101301.56;5079997;28;20434;-68
2022/07/18 01:06:42;;;;;;;4.25;1.60;;;;;;;14.58;100.00;101318.66;5084224;28;20032;-68
2022/07/18 01:09:07;;;;;;;4.57;1.80;;;;;;;14.41;100.00;101284.28;5059450;28;20047;-68
2022/07/18 01:11:34;;;;;;;4.22;2.08;;;;;;;14.46;100.00;101304.31;5063625;28;20371;-68
2022/07/18 01:14:04;;;;;;;3.88;1.83;;;;;;;14.50;100.00;101316.41;5071479;28;20059;-68
2022/07/18 01:16:30;;;;;;;4.45;2.20;;;;;;;14.47;100.00;101313.06;5079433;28;20429;-68
2022/07/18 01:18:55;;;;;;;3.55;1.90;;;;;;;14.46;100.00;101308.72;5062883;28;20031;-68
2022/07/18 01:21:21;;;;;;;3.65;1.45;;;;;;;14.25;100.00;101274.50;5085566;28;20026;-68
2022/07/18 01:23:47;;;;;;;5.13;1.95;;;;;;;14.32;100.00;101299.69;5075076;28;20024;-68
2022/07/18 01:26:13;;;;;;;3.13;1.65;;;;;;;14.28;100.00;101300.78;5084030;28;20106;-68
2022/07/18 01:28:39;;;;;;;4.35;2.17;;;;;;;14.25;100.00;101308.84;5057721;28;20024;-68
2022/07/18 01:31:05;;;;;;;4.85;1.98;;;;;;;14.15;100.00;101304.13;5082589;28;20092;-68
2022/07/18 01:33:34;;;;;;;3.42;1.77;;;;;;;14.07;100.00;101301.84;5076393;28;20024;-68
2022/07/18 01:36:03;;;;;;;5.40;2.35;;;;;;;14.12;100.00;101315.69;5054302;28;20094;-68
2022/07/18 01:38:30;;;;;;;4.40;1.52;;;;;;;13.94;100.00;101290.19;5070883;28;20044;-68
2022/07/18 01:40:56;;;;;;;3.92;1.98;;;;;;;14.08;100.00;101297.41;5092959;28;20445;-68
2022/07/18 01:43:23;;;;;;;7.93;2.08;;;;;;;13.98;100.00;101277.66;5064792;28;20561;-67
2022/07/18 01:45:48;;;;;;;5.40;2.08;;;;;;;14.08;100.00;101295.63;5072377;28;20077;-67
2022/07/18 01:48:14;;;;;;;4.22;1.98;;;;;;;14.01;100.00;101290.72;5085420;28;20036;-68
2022/07/18 01:50:39;;;;;;;4.35;2.00;;;;;;;14.03;100.00;101300.28;5078046;28;20035;-67
2022/07/18 01:53:04;;;;;;;4.40;1.85;;;;;;;14.03;100.00;101300.28;5071334;28;20032;-68
2022/07/18 01:55:30;;;;;;;9.88;2.15;;;;;;;14.01;100.00;101296.88;5070176;28;20029;-67
2022/07/18 01:57:55;;;;;;;4.32;1.88;;;;;;;13.94;100.00;101303.41;5080511;28;20028;-68
2022/07/18 02:00:21;;;;;;;6.18;2.53;;;;;;;13.92;100.00;101297.34;5069903;28;20539;-67
2022/07/18 02:02:46;;;;;;;3.88;1.90;;;;;;;13.92;100.00;101297.34;5070621;28;20029;-67
2022/07/18 02:05:12;;;;;;;6.40;2.42;;;;;;;13.78;100.00;101273.38;5059355;28;20033;-68
2022/07/18 02:07:40;;;;;;;3.67;2.10;;;;;;;13.89;100.00;101291.34;5053250;28;20471;-67
2022/07/18 02:10:08;;;;;;;4.63;1.85;;;;;;;13.79;100.00;101283.84;5060677;28;20059;-67
2022/07/18 02:12:34;;;;;;;5.30;2.20;;;;;;;13.84;100.00;101294.22;5070749;28;20038;-68
2022/07/18 02:14:59;;;;;;;4.32;2.40;;;;;;;13.78;100.00;101287.44;5063314;28;20032;-68
2022/07/18 02:17:25;;;;;;;5.93;1.90;;;;;;;13.73;100.00;101280.66;5071884;28;20028;-68
2022/07/18 02:19:50;;;;;;;4.68;2.13;;;;;;;13.68;100.00;101282.69;5057500;28;20033;-68
2022/07/18 02:22:16;;;;;;;5.07;1.88;;;;;;;13.59;100.00;101256.69;5054018;28;20020;-68
2022/07/18 02:24:41;;;;;;;4.45;2.15;;;;;;;13.68;100.00;101287.97;5068730;28;20233;-68
2022/07/18 02:27:07;;;;;;;7.78;2.33;;;;;;;13.65;100.00;101288.13;5066693;28;20039;-68
2022/07/18 02:29:32;;;;;;;5.10;2.58;;;;;;;13.63;100.00;101277.63;5060194;28;20036;-68
2022/07/18 02:31:58;;;;;;;4.72;2.10;;;;;;;13.62;100.00;101283.00;5064263;28;20064;-68
2022/07/18 02:34:23;;;;;;;6.40;2.22;;;;;;;13.49;100.00;101276.56;5069134;28;20036;-68
2022/07/18 02:36:50;;;;;;;8.95;2.47;;;;;;;13.19;100.00;101241.94;5047235;28;20029;-68
2022/07/18 02:39:16;;;;;;;5.22;2.53;;;;;;;13.38;100.00;101287.66;5049088;28;20029;-68
2022/07/18 02:41:41;;;;;;;5.60;2.25;;;;;;;13.41;100.00;101279.59;5069443;28;20562;-68
2022/07/18 02:44:06;;;;;;;4.50;2.33;;;;;;;12.92;100.00;101201.84;5070919;28;20158;-68
2022/07/18 02:46:32;;;;;;;10.05;2.65;;;;;;;13.44;100.00;101289.16;5063244;28;20032;-67
2022/07/18 02:48:57;;;;;;;5.47;2.55;;;;;;;13.46;100.00;101282.84;5078689;28;20028;-68
2022/07/18 02:51:22;;;;;;;9.15;2.97;;;;;;;13.47;100.00;101275.78;5065426;28;20025;-68
2022/07/18 02:53:48;;;;;;;7.78;2.53;;;;;;;13.30;100.00;101256.34;5075812;28;20071;-67
2022/07/18 02:56:13;;;;;;;4.45;2.70;;;;;;;13.44;100.00;101273.31;5069638;28;20023;-68
2022/07/18 02:58:39;;;;;;;4.03;2.08;;;;;;;13.37;100.00;101266.59;5058677;28;20033;-68
2022/07/18 03:01:05;;;;;;;3.47;1.98;;;;;;;13.40;100.00;101271.72;5072657;28;20060;-68
2022/07/18 03:03:30;;;;;;;3.75;2.30;;;;;;;13.36;100.00;101267.53;5069059;28;20053;-67
2022/07/18 03:05:56;;;;;;;5.00;2.10;;;;;;;13.36;100.00;101259.59;5061289;28;20083;-68
2022/07/18 03:08:21;;;;;;;5.05;2.08;;;;;;;13.28;100.00;101252.06;5071211;28;20089;-68
2022/07/18 03:10:46;;;;;;;4.10;2.00;;;;;;;13.32;100.00;101264.19;5063819;28;20107;-67
2022/07/18 03:13:12;;;;;;;14.82;2.50;;;;;;;13.30;100.00;101255.50;5071827;28;20029;-68
2022/07/18 03:15:38;;;;;;;16.60;3.28;;;;;;;13.30;100.00;101260.75;5059209;28;20029;-67
2022/07/18 03:18:04;;;;;;;6.07;3.33;;;;;;;13.25;100.00;101260.97;5065735;28;20029;-68
2022/07/18 03:20:30;;;;;;;4.20;2.22;;;;;;;13.16;100.00;101252.63;5053448;28;20384;-68
2022/07/18 03:22:55;;;;;;;5.38;2.58;;;;;;;13.13;100.00;101261.56;5076988;28;20023;-68
2022/07/18 03:25:21;;;;;;;6.40;2.38;;;;;;;13.13;100.00;101261.56;5078452;28;20468;-68
2022/07/18 03:27:46;;;;;;;6.22;2.72;;;;;;;13.15;100.00;101262.34;5071046;28;20094;-67
2022/07/18 03:30:12;;;;;;;5.88;3.17;;;;;;;13.09;100.00;101270.53;5074279;28;20146;-68
2022/07/18 03:32:38;;;;;;;8.20;2.35;;;;;;;13.03;100.00;101262.88;5080178;28;20055;-68
2022/07/18 03:35:03;;;;;;;5.00;2.45;;;;;;;12.95;100.00;101249.19;5080317;28;20063;-68
2022/07/18 03:37:29;;;;;;;7.10;2.60;;;;;;;12.97;100.00;101262.31;5054499;28;20082;-68
2022/07/18 03:39:54;;;;;;;10.38;3.08;;;;;;;12.92;100.00;101254.59;5071184;28;20025;-67
2022/07/18 03:42:19;;;;;;;4.90;2.20;;;;;;;12.98;100.00;101264.88;5072502;28;20020;-68
2022/07/18 03:44:45;;;;;;;5.07;2.85;;;;;;;12.95;100.00;101267.66;5067679;28;20033;-68
2022/07/18 03:47:11;;;;;;;5.93;3.10;;;;;;;12.91;100.00;101255.53;5060340;28;20025;-68
2022/07/18 03:49:36;;;;;;;7.00;2.60;;;;;;;12.94;100.00;101265.09;5063519;28;20087;-68
2022/07/18 03:52:01;;;;;;;7.78;2.67;;;;;;;12.88;100.00;101245.09;5068167;28;20023;-68
2022/07/18 03:54:27;;;;;;;6.75;2.72;;;;;;;12.93;100.00;101258.97;5072356;28;20021;-68
2022/07/18 03:56:52;;;;;;;6.28;2.35;;;;;;;12.91;100.00;101242.31;5063852;28;20457;-68
2022/07/18 03:59:17;;;;;;;5.13;2.55;;;;;;;12.88;100.00;101250.38;5068606;28;20128;-68
2022/07/18 04:01:43;;;;;;;8.13;2.80;;;;;;;12.89;100.00;101240.69;5064456;28;20041;-67
2022/07/18 04:04:08;;;;;;;4.60;2.80;;;;;;;12.95;100.00;101258.88;5050842;28;20024;-68
2022/07/18 04:06:33;;;;;;;6.10;2.67;;;;;;;12.88;100.00;101244.25;5065915;28;20514;-68
2022/07/18 04:08:59;;;;;;;7.07;2.38;;;;;;;12.84;100.00;101240.94;5055982;28;20025;-68
2022/07/18 04:11:24;;;;;;;3.80;2.45;;;;;;;12.78;100.00;101247.31;5064844;28;20032;-68
2022/07/18 04:13:51;;;;;;;7.00;3.00;;;;;;;12.79;100.00;101261.38;5075436;28;20104;-68
2022/07/18 04:16:16;;;;;;;4.60;2.15;;;;;;;12.82;100.00;101258.59;5064683;28;20039;-68
2022/07/18 04:18:42;;;;;;;7.20;2.95;;;;;;;12.82;100.00;101248.03;5083490;28;20028;-67
2022/07/18 04:21:07;;;;;;;7.72;2.80;;;;;;;12.94;100.00;101255.41;5075942;28;20032;-68
2022/07/18 04:23:32;;;;;;;8.13;3.05;;;;;;;13.00;100.00;101252.47;5090997;28;20031;-68
2022/07/18 04:25:58;;;;;;;6.13;2.30;;;;;;;13.01;100.00;101243.63;5074386;28;20103;-68
2022/07/18 04:28:23;;;;;;;4.60;2.80;;;;;;;13.10;100.00;101247.66;5076849;28;20059;-68
2022/07/18 04:30:49;;;;;;;5.85;2.67;;;;;;;13.03;100.00;101225.94;5076404;28;20498;-68
2022/07/18 04:33:14;;;;;;;5.50;2.92;;;;;;;13.14;100.00;101249.22;5084901;28;20111;-68
2022/07/18 04:35:41;;;;;;;7.47;2.97;;;;;;;13.20;100.00;101239.25;5082711;28;20035;-68
2022/07/18 04:38:08;;;;;;;6.82;2.88;;;;;;;13.23;100.00;101235.59;5059319;28;20043;-68
2022/07/18 04:40:34;;;;;;;16.08;3.28;;;;;;;13.35;100.00;101250.00;5061500;28;20924;-68
2022/07/18 04:42:59;;;;;;;9.15;3.00;;;;;;;13.35;100.00;101236.81;5067201;28;20028;-68
2022/07/18 04:45:25;;;;;;;5.03;2.67;;;;;;;13.46;100.00;101245.03;5064545;28;20021;-68
2022/07/18 04:47:51;;;;;;;8.10;4.10;;;;;;;13.49;100.00;101245.75;5066327;28;20020;-68
2022/07/18 04:50:17;;;;;;;5.63;3.00;;;;;;;13.51;100.00;101235.13;5085338;28;20110;-68
2022/07/18 04:52:44;;;;;;;8.15;2.70;;;;;;;13.35;100.00;101205.13;5076287;28;20039;-68
2022/07/18 04:55:12;;;;;;;5.53;3.05;;;;;;;13.58;100.00;101233.88;5082775;28;20400;-68
2022/07/18 04:57:38;;;;;;;6.60;2.38;;;;;;;13.62;100.00;101231.00;5063468;28;20111;-68
2022/07/18 05:00:09;;;;;;;4.80;3.13;;;;;;;13.73;100.00;101238.41;5086027;28;20028;-68
2022/07/18 05:02:34;;;;;;;6.20;2.80;;;;;;;13.77;100.00;101239.97;5082105;28;20043;-68
2022/07/18 05:04:59;;;;;;;10.73;3.75;;;;;;;13.74;100.00;101234.84;5082485;28;20471;-68
2022/07/18 05:07:25;;;;;;;4.95;2.90;;;;;;;13.81;100.00;101231.81;5086352;28;20049;-68
2022/07/18 05:09:50;;;;;;;8.57;3.58;;;;;;;13.87;100.00;101225.38;5050066;28;20087;-68
2022/07/18 05:12:16;;;;;;;6.78;3.17;;;;;;;13.79;100.00;101201.97;5053259;28;20486;-68
2022/07/18 05:14:41;;;;;;;9.38;2.58;;;;;;;13.98;100.00;101217.75;5067818;28;20025;-68
2022/07/18 05:17:06;;;;;;;6.45;3.53;;;;;;;14.09;100.00;101222.50;5085347;28;20024;-68
2022/07/18 05:19:32;;;;;;;6.35;3.38;;;;;;;14.13;100.00;101222.22;5068357;28;20426;-68
2022/07/18 05:21:57;;;;;;;6.45;3.35;;;;;;;14.16;100.00;101218.59;5094643;28;20029;-68
2022/07/18 05:24:22;;;;;;;10.40;2.88;;;;;;;14.32;100.00;101233.59;5060068;28;20032;-68
2022/07/18 05:26:48;;;;;;;4.35;2.50;;;;;;;14.37;100.00;101219.28;5059443;28;20031;-68
2022/07/18 05:29:13;;;;;;;7.30;2.97;;;;;;;14.40;100.00;101211.22;5070396;28;20062;-68
2022/07/18 05:31:40;;;;;;;4.65;2.70;;;;;;;14.53;100.00;101220.19;5069724;28;20096;-68
2022/07/18 05:34:06;;;;;;;5.60;2.50;;;;;;;14.61;100.00;101224.13;5070676;28;20052;-68
2022/07/18 05:36:31;;;;;;;12.85;3.47;;;;;;;14.73;100.00;101226.13;5064988;28;20028;-68
2022/07/18 05:38:57;;;;;;;8.45;3.72;;;;;;;14.78;100.00;101220.56;5063551;28;20051;-68
2022/07/18 05:41:22;;;;;;;5.68;2.80;;;;;;;14.96;100.00;101226.66;5082838;28;20025;-68
2022/07/18 05:43:47;;;;;;;6.57;2.85;;;;;;;15.05;100.00;101234.09;5075731;28;20103;-68
2022/07/18 05:46:13;;;;;;;8.10;2.90;;;;;;;15.09;100.00;101227.69;5082720;28;20032;-67
2022/07/18 05:48:38;;;;;;;5.22;2.92;;;;;;;15.13;100.00;101219.50;5069923;28;20048;-68
2022/07/18 05:51:06;;;;;;;8.77;3.20;;;;;;;15.28;100.00;101215.97;5073279;28;20492;-68
2022/07/18 05:53:31;;;;;;;3.85;2.53;;;;;;;15.49;100.00;101234.28;5079026;28;20107;-68
2022/07/18 05:55:57;;;;;;;6.57;3.22;;;;;;;15.53;100.00;101223.41;5066961;28;20127;-68
2022/07/18 05:58:22;;;;;;;6.00;3.30;;;;;;;15.63;100.00;101216.66;5068835;28;20033;-68
2022/07/18 06:00:48;;;;;;;9.85;3.55;;;;;;;15.75;100.00;101215.91;5064412;28;20058;-68
2022/07/18 06:03:13;;;;;;;5.30;2.85;;;;;;;15.83;100.00;101223.44;5072672;28;20077;-68
2022/07/18 06:05:39;;;;;;;5.68;2.95;;;;;;;15.91;100.00;101223.00;5098493;28;20120;-68
2022/07/18 06:08:05;;;;;;;8.40;3.58;;;;;;;16.11;100.00;101242.06;5053198;28;20032;-68
2022/07/18 06:10:30;;;;;;;6.35;3.25;;;;;;;16.24;100.00;101239.53;5066212;28;20036;-68
2022/07/18 06:12:56;;;;;;;9.57;3.38;;;;;;;16.36;100.00;101234.34;5053958;28;20036;-68
2022/07/18 06:15:21;;;;;;;6.18;3.58;;;;;;;16.37;100.00;101216.63;5074796;28;20345;-68
2022/07/18 06:17:47;;;;;;;9.23;3.58;;;;;;;16.56;100.00;101225.19;5079464;28;20024;-68
2022/07/18 06:20:13;;;;;;;8.73;3.50;;;;;;;16.72;100.00;101241.03;5064896;28;20068;-68
2022/07/18 06:22:38;;;;;;;9.02;3.85;;;;;;;16.50;100.00;101183.09;5059941;28;20523;-68
2022/07/18 06:25:04;;;;;;;8.75;4.28;;;;;;;16.92;100.00;101232.66;5075830;28;20031;-69
2022/07/18 06:27:30;;;;;;;5.97;3.50;;;;;;;16.96;100.00;101223.56;5059277;28;20021;-69
2022/07/18 06:29:55;;;;;;;7.68;3.97;;;;;;;17.12;100.00;101228.75;5056664;28;20021;-68
2022/07/18 06:32:20;;;;;;;7.72;3.83;;;;;;;17.25;100.00;101233.16;5065505;28;20052;-68
2022/07/18 06:34:46;;;;;;;7.45;3.72;;;;;;;17.36;100.00;101221.84;5075125;28;20415;-68
2022/07/18 06:37:12;;;;;;;6.80;3.35;;;;;;;17.48;100.00;101210.41;5069800;28;20017;-68
2022/07/18 06:39:37;;;;;;;6.00;3.65;;;;;;;17.63;100.00;101208.59;5054263;28;20489;-68
2022/07/18 06:42:03;;;;;;;6.18;3.85;;;;;;;17.83;100.00;101221.41;5072598;28;20037;-68
2022/07/18 06:44:29;;;;;;;10.15;3.83;;;;;;;17.83;100.00;101206.31;5069484;28;20025;-68
2022/07/18 06:46:54;;;;;;;6.90;4.00;;;;;;;17.99;100.00;101213.22;5067186;28;20070;-68
2022/07/18 06:49:20;;;;;;;4.68;3.28;;;;;;;18.04;100.00;101217.31;5071863;28;20037;-68
2022/07/18 06:51:45;;;;;;;6.57;4.00;;;;;;;18.09;100.00;101217.81;5058936;28;20024;-68
2022/07/18 06:54:11;;;;;;;7.80;3.80;;;;;;;18.07;100.00;101203.78;5075575;28;20043;-68
2022/07/18 06:56:36;;;;;;;9.77;4.05;;;;;;;18.21;100.00;101222.31;5067230;28;20021;-68
2022/07/18 06:59:02;;;;;;;5.72;3.53;;;;;;;18.29;100.00;101225.28;5071536;28;20021;-69
2022/07/18 07:01:27;;;;;;;7.43;3.15;;;;;;;18.37;100.00;101228.28;5067511;28;20039;-69
2022/07/18 07:03:52;;;;;;;5.55;3.03;;;;;;;18.45;100.00;101232.22;5063283;28;20040;-69
2022/07/18 07:06:18;;;;;;;7.95;3.28;;;;;;;18.37;100.00;101201.69;5067833;28;20024;-69
2022/07/18 07:08:44;;;;;;;7.50;3.10;;;;;;;18.69;100.00;101230.56;5063998;28;20024;-68
2022/07/18 07:11:09;;;;;;;16.17;2.72;;;;;;;18.83;100.00;101230.41;5045206;28;20052;-68
2022/07/18 07:13:35;;;;;;;5.40;2.95;;;;;;;19.01;100.00;101222.91;5064838;28;20400;-68
2022/07/18 07:16:00;;;;;;;7.05;3.05;;;;;;;19.19;100.00;101222.44;5053767;28;20103;-68
2022/07/18 07:18:26;;;;;;;4.30;2.15;;;;;;;19.24;100.00;101208.75;5075421;28;20025;-68
2022/07/18 07:20:54;;;;;;;5.28;3.05;;;;;;;19.44;100.00;101224.19;5055520;28;20055;-69
2022/07/18 07:23:20;;;;;;;4.00;2.05;;;;;;;19.56;100.00;101230.44;5054857;28;20028;-69
2022/07/18 07:25:45;;;;;;;8.32;2.75;;;;;;;19.64;100.00;101215.53;5054822;28;20021;-69
2022/07/18 07:28:11;;;;;;;4.15;2.60;;;;;;;19.81;100.00;101219.59;5091875;28;20111;-69
2022/07/18 07:30:36;;;;;;;3.97;2.35;;;;;;;19.81;100.00;101192.94;5072654;28;20477;-69
2022/07/18 07:33:03;;;;;;;6.05;3.03;;;;;;;19.78;100.00;101166.50;5055543;28;20030;-69
2022/07/18 07:35:29;;;;;;;5.60;2.83;;;;;;;20.15;100.00;101205.41;5068863;28;20040;-69
2022/07/18 07:37:57;;;;;;;4.13;2.35;;;;;;;20.30;100.00;101200.75;5077849;28;20033;-68
2022/07/18 07:40:24;;;;;;;6.47;3.17;;;;;;;20.57;100.00;101206.59;5081875;28;20402;-68
2022/07/18 07:42:50;;;;;;;6.40;3.38;;;;;;;20.85;100.00;101213.28;5061371;28;20016;-69
2022/07/18 07:45:16;;;;;;;5.22;2.70;;;;;;;21.12;100.00;101203.06;5087146;27;20376;-68
2022/07/18 07:47:41;;;;;;;5.82;3.17;;;;;;;21.23;100.00;101196.81;5053807;28;20025;-69
2022/07/18 07:50:08;;;;;;;8.68;2.63;;;;;;;21.44;96.97;101199.56;5054845;28;20112;-68
2022/07/18 07:52:34;;;;;;;6.07;3.38;;;;;;;21.50;95.87;101188.34;5055116;28;20406;-69
2022/07/18 07:54:59;;;;;;;4.63;2.83;;;;;;;21.68;93.60;101189.50;5087564;28;20021;-69
2022/07/18 07:57:25;;;;;;;6.57;3.38;;;;;;;21.89;93.14;101190.38;5058568;28;20032;-69
2022/07/18 07:59:51;;;;;;;5.95;2.67;;;;;;;22.06;92.51;101197.84;5100063;27;20086;-69
2022/07/18 08:02:18;;;;;;;6.10;3.10;;;;;;;22.23;92.05;101199.94;5070211;28;20023;-69
2022/07/18 08:04:43;;;;;;;9.25;3.15;;;;;;;22.31;91.29;101181.34;5071490;28;20041;-69
2022/07/18 08:07:09;;;;;;;5.32;3.15;;;;;;;22.48;86.71;101193.28;5068394;28;20051;-70
2022/07/18 08:09:34;;;;;;;10.15;3.75;;;;;;;22.71;85.67;101194.81;5052257;28;20025;-69
2022/07/18 08:11:59;;;;;;;5.22;2.63;;;;;;;22.89;84.48;101189.66;5051289;28;20080;-71
2022/07/18 08:14:25;;;;;;;5.28;2.75;;;;;;;22.88;85.99;101155.81;5070455;28;20036;-67
2022/07/18 08:16:50;;;;;;;9.48;3.35;;;;;;;23.11;83.75;101181.41;5068232;28;20027;-69
2022/07/18 08:19:16;;;;;;;7.55;2.97;;;;;;;23.27;77.23;101183.53;5051611;28;20654;-70
2022/07/18 08:21:41;;;;;;;5.60;3.20;;;;;;;23.60;76.21;101187.69;5068632;28;20032;-69
2022/07/18 08:24:06;;;;;;;4.97;2.42;;;;;;;23.76;78.10;101177.25;5069435;28;20025;-69
2022/07/18 08:26:34;;;;;;;4.88;2.58;;;;;;;23.92;76.14;101185.56;5075813;28;20638;-69
2022/07/18 08:28:59;;;;;;;10.02;3.28;;;;;;;24.10;75.00;101197.25;5069554;28;20056;-70
2022/07/18 08:31:25;;;;;;;7.35;2.78;;;;;;;24.23;73.36;101199.69;5058982;28;20024;-68
2022/07/18 08:33:50;;;;;;;17.42;3.22;;;;;;;24.46;72.54;101192.09;5055086;28;20045;-70
2022/07/18 08:36:16;;;;;;;5.38;2.83;;;;;;;24.64;70.71;101190.34;5064773;28;20136;-71
2022/07/18 08:38:41;;;;;;;5.72;2.28;;;;;;;24.78;67.47;101187.13;5032376;28;20102;-70
2022/07/18 08:41:07;;;;;;;6.57;2.45;;;;;;;24.75;67.89;101149.81;5033709;28;20036;-71
2022/07/18 08:43:32;;;;;;;6.07;2.53;;;;;;;24.88;69.05;101156.56;5056786;28;20021;-70
2022/07/18 08:46:03;;;;;;;5.40;2.38;;;;;;;25.08;71.22;101177.97;5058241;28;20039;-70
2022/07/18 08:48:29;;;;;;;6.45;2.63;;;;;;;25.08;68.60;101170.72;5055520;28;20492;-70
2022/07/18 08:50:54;;;;;;;13.90;2.55;;;;;;;25.15;67.25;101152.97;5056510;28;20051;-69
2022/07/18 08:53:20;;;;;;;8.43;2.65;;;;;;;25.20;66.09;101139.94;5060725;28;20039;-70
2022/07/18 08:55:46;;;;;;;15.07;2.72;;;;;;;25.62;65.76;101172.47;5060106;28;20024;-70
2022/07/18 08:58:14;;;;;;;4.05;2.40;;;;;;;25.75;62.81;101172.91;5056443;28;20039;-69
2022/07/18 09:00:40;;;;;;;6.32;2.22;;;;;;;25.88;61.03;101172.53;5083115;28;20029;-70
2022/07/18 09:03:05;;;;;;;4.95;2.50;;;;;;;25.93;62.93;101160.28;5079667;28;20107;-70
2022/07/18 09:05:32;;;;;;;4.93;2.20;;;;;;;26.11;63.02;101170.16;5064358;28;20036;-70
2022/07/18 09:08:27;;;;;;;8.95;3.03;;;;;;;26.23;61.30;101172.47;5068330;28;20028;-71
2022/07/18 09:10:55;;;;;;;5.90;2.22;;;;;;;26.29;63.60;101179.09;5060916;28;20098;-70
2022/07/18 09:13:39;;;;;;;4.00;2.17;;;;;;;26.36;61.35;101170.19;5074285;28;20028;-70
2022/07/18 09:16:05;;;;;;;6.82;2.30;;;;;;;26.47;59.66;101162.81;5058426;28;20016;-70
2022/07/18 09:18:34;;;;;;;8.10;3.00;;;;;;;26.21;57.50;101120.59;5058696;28;20091;-70
2022/07/18 09:21:10;;;;;;;5.63;2.03;;;;;;;26.61;59.01;101173.00;5058213;28;20021;-70
2022/07/18 09:23:38;;;;;;;3.08;2.03;;;;;;;26.68;58.45;101172.22;5062828;28;20059;-71
2022/07/18 09:26:04;;;;;;;6.53;2.35;;;;;;;26.76;59.05;101176.81;5065555;28;20568;-71
2022/07/18 09:28:56;;;;;;;8.80;2.47;;;;;;;26.89;58.65;101174.53;5074374;28;20029;-70
2022/07/18 09:31:27;;;;;;;12.50;2.28;;;;;;;26.97;59.02;101163.72;5059242;28;20499;-71
2022/07/18 09:33:59;;;;;;;6.93;2.33;;;;;;;27.16;56.87;101171.56;5067229;28;20557;-71
2022/07/18 09:36:26;;;;;;;5.70;2.28;;;;;;;27.16;56.32;101149.97;5087573;28;20036;-73
2022/07/18 09:38:51;;;;;;;9.77;1.80;;;;;;;27.29;54.96;101149.47;5058497;28;20048;-71
2022/07/18 09:41:22;;;;;;;4.18;1.70;;;;;;;27.52;56.78;101171.31;5057434;28;20025;-71
2022/07/18 09:43:48;;;;;;;6.43;2.10;;;;;;;27.60;55.20;101157.81;5058968;28;20031;-70
2022/07/18 09:46:13;;;;;;;7.55;1.38;;;;;;;27.67;54.03;101150.72;5072885;28;20032;-71
2022/07/18 09:48:38;;;;;;;4.47;1.80;;;;;;;27.70;55.12;101153.09;5065298;28;20542;-74
2022/07/18 09:51:06;;;;;;;5.78;2.17;;;;;;;27.89;54.32;101174.34;5041032;28;20110;-70
2022/07/18 09:53:32;;;;;;;6.32;1.83;;;;;;;27.93;54.15;101168.44;5078009;28;20039;-70
2022/07/18 09:55:59;;;;;;;4.13;2.03;;;;;;;27.99;54.95;101158.81;5065414;28;20116;-70
2022/07/18 09:58:29;;;;;;;4.03;1.70;;;;;;;28.03;54.85;101152.03;5072557;28;20088;-71
2022/07/18 10:00:56;;;;;;;5.13;1.65;;;;;;;28.25;53.65;101170.28;5063203;28;20024;-71
2022/07/18 10:03:23;;;;;;;4.18;1.95;;;;;;;28.31;53.44;101156.09;5099664;28;20024;-71
2022/07/18 10:05:49;;;;;;;3.90;1.83;;;;;;;28.42;54.00;101160.28;5052722;28;20480;-72
2022/07/18 10:08:18;;;;;;;6.10;1.48;;;;;;;28.53;51.38;101167.16;5055129;28;20032;-70
2022/07/18 10:10:46;;;;;;;3.25;1.40;;;;;;;28.52;50.53;101162.78;5054828;28;20462;-73
2022/07/18 10:13:12;;;;;;;3.50;1.40;;;;;;;28.51;53.06;101161.09;5056291;28;20086;-71
2022/07/18 10:15:39;;;;;;;12.30;1.95;;;;;;;28.56;52.15;101156.00;5058698;28;20020;-71
2022/07/18 10:18:06;;;;;;;7.45;1.80;;;;;;;28.71;50.21;101168.66;5057326;28;20115;-70
2022/07/18 10:20:37;;;;;;;4.28;1.65;;;;;;;28.72;49.97;101155.97;5054872;28;20033;-71
2022/07/18 10:23:15;;;;;;;4.15;1.63;;;;;;;28.81;50.27;101158.47;5039776;28;20043;-71
2022/07/18 10:25:41;;;;;;;3.00;1.80;;;;;;;28.98;50.66;101170.03;5051232;28;20025;-71
2022/07/18 10:28:09;;;;;;;4.30;1.83;;;;;;;28.98;50.88;101156.50;5066245;28;20047;-71
2022/07/18 10:30:37;;;;;;;6.10;1.85;;;;;;;29.16;51.16;101159.78;5059859;28;20029;-72
2022/07/18 10:33:03;;;;;;;6.10;2.47;;;;;;;29.25;49.35;101160.56;5058845;28;20024;-72
2022/07/18 10:36:01;;;;;;;3.63;1.67;;;;;;;29.40;48.31;101167.75;5065322;28;20044;-71
2022/07/18 10:38:27;;;;;;;3.80;2.17;;;;;;;29.50;48.47;101161.28;5060696;28;20387;-72
2022/07/18 10:41:10;;;;;;;5.07;1.80;;;;;;;29.52;49.34;101142.97;5078576;28;20036;-71
2022/07/18 10:43:43;;;;;;;6.15;1.95;;;;;;;29.47;47.61;101139.97;5073003;28;20031;-71
2022/07/18 10:46:10;;;;;;;3.42;1.70;;;;;;;29.47;48.55;101135.41;5070280;28;20025;-71
2022/07/18 10:48:35;;;;;;;5.18;1.83;;;;;;;29.58;47.02;101153.91;5070353;28;20029;-70
2022/07/18 10:51:09;;;;;;;7.38;1.98;;;;;;;29.66;47.70;101145.75;5056156;28;20408;-71
2022/07/18 10:53:52;;;;;;;3.05;1.30;;;;;;;29.81;45.40;101145.78;5052993;28;20428;-71
2022/07/18 10:56:18;;;;;;;3.90;1.42;;;;;;;29.86;45.17;101132.53;5054207;28;20468;-70
2022/07/18 10:58:44;;;;;;;4.45;1.80;;;;;;;29.95;45.63;101136.84;5062420;28;20060;-71
2022/07/18 11:01:16;;;;;;;7.60;1.40;;;;;;;29.94;45.56;101115.38;5058527;28;20526;-72
2022/07/18 11:03:42;;;;;;;3.30;1.67;;;;;;;30.05;45.30;101120.31;5054660;28;20021;-70
2022/07/18 11:06:07;;;;;;;3.47;1.42;;;;;;;30.02;45.68;101115.25;5086657;28;20052;-70
2022/07/18 11:08:33;;;;;;;5.22;1.70;;;;;;;30.09;44.20;101130.59;5056851;28;20121;-71
2022/07/18 11:11:04;;;;;;;6.18;2.05;;;;;;;30.08;44.64;101137.06;5056615;28;20112;-71
2022/07/18 11:13:38;;;;;;;3.55;1.40;;;;;;;30.23;46.43;101124.34;5059793;28;20048;-70
2022/07/18 11:16:12;;;;;;;7.00;1.73;;;;;;;30.34;45.74;101113.03;5060032;28;20024;-70